Hot Springs, North Carolina
Current Conditions -  °F | °C
As of 10:54 PM on Sunday 21 Dec 2014 (Local Time) from KAVL Reporting Station
Haze Haze  
Wind Chill: 40°   Ceiling: 500
Heat Index: 40°   Visibility: 6mi
Dew Point: 38°   Wind: 0mph
Humidity: 93%   Direction: NA
Pressure: 30.15"   Gusts: NA
Location:  35.89°N, 82.83°W
Report Text: KAVL 220354Z AUTO 00000KT 6SM BR OVC005 04/03 A3015 RMK AO2 SLP210 T00440033
Loading
Personal Weather Stations






























Interactive Weather Map New forecast layout! Learn more

10-Day Weather Forecast

Advertisements
Track Severe Weather on mobile